sensor_id;sensor_type;location;lat;lon;timestamp;P1;durP1;ratioP1;P2;durP2;ratioP2
14688;SDS011;7432;48.728;9.154;2022-07-06T00:01:53;4.90;;;4.30;;
14688;SDS011;7432;48.728;9.154;2022-07-06T00:04:19;5.83;;;4.20;;
14688;SDS011;7432;48.728;9.154;2022-07-06T00:06:46;4.57;;;4.00;;
14688;SDS011;7432;48.728;9.154;2022-07-06T00:09:12;4.90;;;4.50;;
14688;SDS011;7432;48.728;9.154;2022-07-06T00:11:40;20.37;;;8.70;;
14688;SDS011;7432;48.728;9.154;2022-07-06T00:14:07;14.07;;;7.40;;
14688;SDS011;7432;48.728;9.154;2022-07-06T00:16:33;9.97;;;6.47;;
14688;SDS011;7432;48.728;9.154;2022-07-06T00:19:00;7.17;;;4.50;;
14688;SDS011;7432;48.728;9.154;2022-07-06T00:21:26;5.57;;;5.17;;
14688;SDS011;7432;48.728;9.154;2022-07-06T00:23:53;4.00;;;3.70;;
14688;SDS011;7432;48.728;9.154;2022-07-06T00:26:19;4.73;;;4.10;;
14688;SDS011;7432;48.728;9.154;2022-07-06T00:28:47;4.70;;;4.30;;
14688;SDS011;7432;48.728;9.154;2022-07-06T00:31:13;4.37;;;4.07;;
14688;SDS011;7432;48.728;9.154;2022-07-06T00:33:40;4.80;;;4.40;;
14688;SDS011;7432;48.728;9.154;2022-07-06T00:36:06;7.27;;;4.57;;
14688;SDS011;7432;48.728;9.154;2022-07-06T00:38:33;5.93;;;4.97;;
14688;SDS011;7432;48.728;9.154;2022-07-06T00:40:59;8.70;;;5.40;;
14688;SDS011;7432;48.728;9.154;2022-07-06T00:43:26;6.63;;;5.10;;
14688;SDS011;7432;48.728;9.154;2022-07-06T00:45:53;8.87;;;4.97;;
14688;SDS011;7432;48.728;9.154;2022-07-06T00:48:20;8.30;;;5.13;;
14688;SDS011;7432;48.728;9.154;2022-07-06T00:50:46;5.47;;;4.33;;
14688;SDS011;7432;48.728;9.154;2022-07-06T00:53:13;6.67;;;4.47;;
14688;SDS011;7432;48.728;9.154;2022-07-06T00:55:40;4.43;;;4.03;;
14688;SDS011;7432;48.728;9.154;2022-07-06T00:58:07;4.70;;;4.30;;
14688;SDS011;7432;48.728;9.154;2022-07-06T01:00:35;4.60;;;4.30;;
14688;SDS011;7432;48.728;9.154;2022-07-06T01:03:03;4.13;;;3.77;;
14688;SDS011;7432;48.728;9.154;2022-07-06T01:05:30;4.67;;;4.30;;
14688;SDS011;7432;48.728;9.154;2022-07-06T01:07:56;4.30;;;3.90;;
14688;SDS011;7432;48.728;9.154;2022-07-06T01:10:23;5.00;;;4.40;;
14688;SDS011;7432;48.728;9.154;2022-07-06T01:12:50;4.40;;;4.10;;
14688;SDS011;7432;48.728;9.154;2022-07-06T01:15:17;5.17;;;4.00;;
14688;SDS011;7432;48.728;9.154;2022-07-06T01:17:45;4.40;;;4.10;;
14688;SDS011;7432;48.728;9.154;2022-07-06T01:20:14;5.20;;;4.80;;
14688;SDS011;7432;48.728;9.154;2022-07-06T01:22:41;4.73;;;4.33;;
14688;SDS011;7432;48.728;9.154;2022-07-06T01:25:08;5.00;;;4.53;;
14688;SDS011;7432;48.728;9.154;2022-07-06T01:27:36;5.00;;;4.60;;
14688;SDS011;7432;48.728;9.154;2022-07-06T01:30:04;4.67;;;4.17;;
14688;SDS011;7432;48.728;9.154;2022-07-06T01:32:31;5.03;;;4.63;;
14688;SDS011;7432;48.728;9.154;2022-07-06T01:34:58;4.43;;;4.13;;
14688;SDS011;7432;48.728;9.154;2022-07-06T01:37:26;7.27;;;4.70;;
14688;SDS011;7432;48.728;9.154;2022-07-06T01:39:53;4.57;;;4.27;;
14688;SDS011;7432;48.728;9.154;2022-07-06T01:42:19;5.07;;;4.60;;
14688;SDS011;7432;48.728;9.154;2022-07-06T01:44:46;5.00;;;4.50;;
14688;SDS011;7432;48.728;9.154;2022-07-06T01:47:12;4.80;;;4.50;;
14688;SDS011;7432;48.728;9.154;2022-07-06T01:49:39;5.07;;;4.60;;
14688;SDS011;7432;48.728;9.154;2022-07-06T01:52:05;5.13;;;4.77;;
14688;SDS011;7432;48.728;9.154;2022-07-06T01:54:33;5.20;;;4.90;;
14688;SDS011;7432;48.728;9.154;2022-07-06T01:57:00;4.73;;;4.43;;
14688;SDS011;7432;48.728;9.154;2022-07-06T01:59:26;5.13;;;4.63;;
14688;SDS011;7432;48.728;9.154;2022-07-06T02:01:53;5.23;;;4.83;;
14688;SDS011;7432;48.728;9.154;2022-07-06T02:04:19;5.27;;;4.87;;
14688;SDS011;7432;48.728;9.154;2022-07-06T02:06:45;5.43;;;5.00;;
14688;SDS011;7432;48.728;9.154;2022-07-06T02:09:12;5.10;;;4.67;;
14688;SDS011;7432;48.728;9.154;2022-07-06T02:11:40;5.00;;;4.60;;
14688;SDS011;7432;48.728;9.154;2022-07-06T02:14:06;4.97;;;4.57;;
14688;SDS011;7432;48.728;9.154;2022-07-06T02:16:32;6.63;;;4.30;;
14688;SDS011;7432;48.728;9.154;2022-07-06T02:18:59;5.37;;;4.83;;
14688;SDS011;7432;48.728;9.154;2022-07-06T02:21:25;6.67;;;5.20;;
14688;SDS011;7432;48.728;9.154;2022-07-06T02:23:52;5.00;;;4.70;;
14688;SDS011;7432;48.728;9.154;2022-07-06T02:26:18;5.07;;;4.60;;
14688;SDS011;7432;48.728;9.154;2022-07-06T02:28:46;6.27;;;4.30;;
14688;SDS011;7432;48.728;9.154;2022-07-06T02:31:13;4.80;;;4.40;;
14688;SDS011;7432;48.728;9.154;2022-07-06T02:33:39;4.83;;;4.30;;
14688;SDS011;7432;48.728;9.154;2022-07-06T02:36:06;4.53;;;4.20;;
14688;SDS011;7432;48.728;9.154;2022-07-06T02:38:33;4.93;;;4.43;;
14688;SDS011;7432;48.728;9.154;2022-07-06T02:40:59;4.77;;;4.40;;
14688;SDS011;7432;48.728;9.154;2022-07-06T02:43:26;5.03;;;4.73;;
14688;SDS011;7432;48.728;9.154;2022-07-06T02:45:53;5.57;;;5.07;;
14688;SDS011;7432;48.728;9.154;2022-07-06T02:48:20;5.13;;;4.70;;
14688;SDS011;7432;48.728;9.154;2022-07-06T02:50:46;5.10;;;4.60;;
14688;SDS011;7432;48.728;9.154;2022-07-06T02:53:13;4.80;;;4.40;;
14688;SDS011;7432;48.728;9.154;2022-07-06T02:55:39;5.27;;;4.87;;
14688;SDS011;7432;48.728;9.154;2022-07-06T02:58:06;5.07;;;4.67;;
14688;SDS011;7432;48.728;9.154;2022-07-06T03:00:32;4.97;;;4.60;;
14688;SDS011;7432;48.728;9.154;2022-07-06T03:03:00;5.13;;;4.70;;
14688;SDS011;7432;48.728;9.154;2022-07-06T03:05:27;4.97;;;4.60;;
14688;SDS011;7432;48.728;9.154;2022-07-06T03:07:53;8.63;;;5.03;;
14688;SDS011;7432;48.728;9.154;2022-07-06T03:10:20;6.13;;;5.53;;
14688;SDS011;7432;48.728;9.154;2022-07-06T03:12:46;5.43;;;4.93;;
14688;SDS011;7432;48.728;9.154;2022-07-06T03:15:13;5.67;;;5.17;;
14688;SDS011;7432;48.728;9.154;2022-07-06T03:17:39;5.33;;;4.83;;
14688;SDS011;7432;48.728;9.154;2022-07-06T03:20:07;5.30;;;4.80;;
14688;SDS011;7432;48.728;9.154;2022-07-06T03:22:34;5.93;;;5.40;;
14688;SDS011;7432;48.728;9.154;2022-07-06T03:25:01;5.67;;;5.27;;
14688;SDS011;7432;48.728;9.154;2022-07-06T03:27:27;5.80;;;5.40;;
14688;SDS011;7432;48.728;9.154;2022-07-06T03:29:54;5.20;;;4.70;;
14688;SDS011;7432;48.728;9.154;2022-07-06T03:32:20;5.67;;;5.23;;
14688;SDS011;7432;48.728;9.154;2022-07-06T03:34:47;6.03;;;5.63;;
14688;SDS011;7432;48.728;9.154;2022-07-06T03:37:14;6.33;;;5.37;;
14688;SDS011;7432;48.728;9.154;2022-07-06T03:39:41;5.67;;;5.27;;
14688;SDS011;7432;48.728;9.154;2022-07-06T03:42:07;6.00;;;5.43;;
14688;SDS011;7432;48.728;9.154;2022-07-06T03:44:34;5.57;;;5.07;;
14688;SDS011;7432;48.728;9.154;2022-07-06T03:47:00;5.53;;;5.13;;
14688;SDS011;7432;48.728;9.154;2022-07-06T03:49:26;5.93;;;5.43;;
14688;SDS011;7432;48.728;9.154;2022-07-06T03:51:53;5.80;;;5.30;;
14688;SDS011;7432;48.728;9.154;2022-07-06T03:54:21;8.93;;;5.87;;
14688;SDS011;7432;48.728;9.154;2022-07-06T03:56:48;6.40;;;5.80;;
14688;SDS011;7432;48.728;9.154;2022-07-06T03:59:14;5.93;;;5.43;;
14688;SDS011;7432;48.728;9.154;2022-07-06T04:01:41;6.03;;;5.40;;
14688;SDS011;7432;48.728;9.154;2022-07-06T04:04:07;6.47;;;5.87;;
14688;SDS011;7432;48.728;9.154;2022-07-06T04:06:34;8.60;;;5.97;;
14688;SDS011;7432;48.728;9.154;2022-07-06T04:09:00;6.03;;;5.50;;
14688;SDS011;7432;48.728;9.154;2022-07-06T04:11:28;6.10;;;5.60;;
14688;SDS011;7432;48.728;9.154;2022-07-06T04:13:54;6.77;;;6.17;;
14688;SDS011;7432;48.728;9.154;2022-07-06T04:16:21;6.40;;;6.00;;
14688;SDS011;7432;48.728;9.154;2022-07-06T04:18:47;6.20;;;5.70;;
14688;SDS011;7432;48.728;9.154;2022-07-06T04:21:14;5.80;;;5.40;;
14688;SDS011;7432;48.728;9.154;2022-07-06T04:23:40;6.20;;;5.60;;
14688;SDS011;7432;48.728;9.154;2022-07-06T04:26:07;5.93;;;5.27;;
14688;SDS011;7432;48.728;9.154;2022-07-06T04:28:35;6.60;;;6.07;;
14688;SDS011;7432;48.728;9.154;2022-07-06T04:31:01;6.53;;;5.70;;
14688;SDS011;7432;48.728;9.154;2022-07-06T04:33:27;6.47;;;5.97;;
14688;SDS011;7432;48.728;9.154;2022-07-06T04:35:54;6.80;;;6.30;;
14688;SDS011;7432;48.728;9.154;2022-07-06T04:38:21;5.77;;;5.37;;
14688;SDS011;7432;48.728;9.154;2022-07-06T04:40:47;6.57;;;5.97;;
14688;SDS011;7432;48.728;9.154;2022-07-06T04:43:13;6.93;;;6.43;;
14688;SDS011;7432;48.728;9.154;2022-07-06T04:45:41;6.67;;;6.20;;
14688;SDS011;7432;48.728;9.154;2022-07-06T04:48:08;6.40;;;5.80;;
14688;SDS011;7432;48.728;9.154;2022-07-06T04:50:34;7.97;;;6.00;;
14688;SDS011;7432;48.728;9.154;2022-07-06T04:53:01;6.73;;;6.23;;
14688;SDS011;7432;48.728;9.154;2022-07-06T04:55:27;6.63;;;6.10;;
14688;SDS011;7432;48.728;9.154;2022-07-06T04:57:54;7.03;;;6.33;;
14688;SDS011;7432;48.728;9.154;2022-07-06T05:00:20;7.70;;;6.10;;
14688;SDS011;7432;48.728;9.154;2022-07-06T05:02:48;6.70;;;6.20;;
14688;SDS011;7432;48.728;9.154;2022-07-06T05:05:15;6.87;;;6.40;;
14688;SDS011;7432;48.728;9.154;2022-07-06T05:07:41;6.90;;;6.20;;
14688;SDS011;7432;48.728;9.154;2022-07-06T05:10:08;6.67;;;6.07;;
14688;SDS011;7432;48.728;9.154;2022-07-06T05:12:35;6.87;;;6.27;;
14688;SDS011;7432;48.728;9.154;2022-07-06T05:15:02;6.33;;;5.77;;
14688;SDS011;7432;48.728;9.154;2022-07-06T05:17:30;6.33;;;5.93;;
14688;SDS011;7432;48.728;9.154;2022-07-06T05:19:58;6.27;;;5.77;;
14688;SDS011;7432;48.728;9.154;2022-07-06T05:22:24;8.87;;;6.57;;
14688;SDS011;7432;48.728;9.154;2022-07-06T05:24:51;5.87;;;5.47;;
14688;SDS011;7432;48.728;9.154;2022-07-06T05:27:17;6.67;;;6.10;;
14688;SDS011;7432;48.728;9.154;2022-07-06T05:29:44;6.87;;;6.23;;
14688;SDS011;7432;48.728;9.154;2022-07-06T05:32:11;6.33;;;5.83;;
14688;SDS011;7432;48.728;9.154;2022-07-06T05:34:37;6.63;;;6.10;;
14688;SDS011;7432;48.728;9.154;2022-07-06T05:37:06;6.53;;;5.93;;
14688;SDS011;7432;48.728;9.154;2022-07-06T05:39:32;7.17;;;6.50;;
14688;SDS011;7432;48.728;9.154;2022-07-06T05:41:59;7.10;;;6.40;;
14688;SDS011;7432;48.728;9.154;2022-07-06T05:44:25;7.00;;;6.40;;
14688;SDS011;7432;48.728;9.154;2022-07-06T05:46:52;6.57;;;6.07;;
14688;SDS011;7432;48.728;9.154;2022-07-06T05:49:39;7.17;;;6.37;;
14688;SDS011;7432;48.728;9.154;2022-07-06T05:52:24;7.70;;;6.77;;
14688;SDS011;7432;48.728;9.154;2022-07-06T05:54:51;6.90;;;6.30;;
14688;SDS011;7432;48.728;9.154;2022-07-06T05:57:17;6.03;;;5.53;;
14688;SDS011;7432;48.728;9.154;2022-07-06T05:59:43;6.57;;;6.00;;
14688;SDS011;7432;48.728;9.154;2022-07-06T06:02:10;7.17;;;6.47;;
14688;SDS011;7432;48.728;9.154;2022-07-06T06:04:36;5.97;;;5.50;;
14688;SDS011;7432;48.728;9.154;2022-07-06T06:07:03;7.97;;;6.43;;
14688;SDS011;7432;48.728;9.154;2022-07-06T06:09:31;6.50;;;5.90;;
14688;SDS011;7432;48.728;9.154;2022-07-06T06:11:57;6.90;;;6.20;;
14688;SDS011;7432;48.728;9.154;2022-07-06T06:14:24;6.70;;;6.10;;
14688;SDS011;7432;48.728;9.154;2022-07-06T06:16:50;6.80;;;6.30;;
14688;SDS011;7432;48.728;9.154;2022-07-06T06:19:16;6.68;;;6.18;;
14688;SDS011;7432;48.728;9.154;2022-07-06T06:21:43;6.95;;;6.38;;
14688;SDS011;7432;48.728;9.154;2022-07-06T06:24:09;6.13;;;5.72;;
14688;SDS011;7432;48.728;9.154;2022-07-06T06:26:37;7.57;;;6.15;;
14688;SDS011;7432;48.728;9.154;2022-07-06T06:29:03;7.40;;;6.22;;
14688;SDS011;7432;48.728;9.154;2022-07-06T06:31:30;6.75;;;6.03;;
14688;SDS011;7432;48.728;9.154;2022-07-06T06:33:56;6.70;;;6.20;;
14688;SDS011;7432;48.728;9.154;2022-07-06T06:36:23;6.60;;;6.20;;
14688;SDS011;7432;48.728;9.154;2022-07-06T06:38:50;5.75;;;5.35;;
14688;SDS011;7432;48.728;9.154;2022-07-06T06:41:16;6.70;;;5.88;;
14688;SDS011;7432;48.728;9.154;2022-07-06T06:43:46;6.63;;;6.03;;
14688;SDS011;7432;48.728;9.154;2022-07-06T06:46:13;6.45;;;5.95;;
14688;SDS011;7432;48.728;9.154;2022-07-06T06:48:39;7.57;;;6.90;;
14688;SDS011;7432;48.728;9.154;2022-07-06T06:51:06;6.40;;;6.00;;
14688;SDS011;7432;48.728;9.154;2022-07-06T06:53:33;6.40;;;5.90;;
14688;SDS011;7432;48.728;9.154;2022-07-06T06:55:59;5.65;;;5.35;;
14688;SDS011;7432;48.728;9.154;2022-07-06T06:58:26;7.20;;;6.60;;
14688;SDS011;7432;48.728;9.154;2022-07-06T07:00:53;7.38;;;6.88;;
14688;SDS011;7432;48.728;9.154;2022-07-06T07:03:20;6.80;;;6.20;;
14688;SDS011;7432;48.728;9.154;2022-07-06T07:05:47;6.70;;;6.22;;
14688;SDS011;7432;48.728;9.154;2022-07-06T07:08:14;6.65;;;6.15;;
14688;SDS011;7432;48.728;9.154;2022-07-06T07:10:40;6.32;;;6.03;;
14688;SDS011;7432;48.728;9.154;2022-07-06T07:13:07;6.90;;;6.30;;
14688;SDS011;7432;48.728;9.154;2022-07-06T07:15:33;6.65;;;6.05;;
14688;SDS011;7432;48.728;9.154;2022-07-06T07:18:01;6.55;;;6.15;;
14688;SDS011;7432;48.728;9.154;2022-07-06T07:20:28;7.15;;;6.65;;
14688;SDS011;7432;48.728;9.154;2022-07-06T07:22:55;7.20;;;6.68;;
14688;SDS011;7432;48.728;9.154;2022-07-06T07:25:22;7.55;;;6.80;;
14688;SDS011;7432;48.728;9.154;2022-07-06T07:27:48;6.90;;;6.30;;
14688;SDS011;7432;48.728;9.154;2022-07-06T07:30:15;6.20;;;5.80;;
14688;SDS011;7432;48.728;9.154;2022-07-06T07:32:41;6.63;;;6.22;;
14688;SDS011;7432;48.728;9.154;2022-07-06T07:35:09;6.78;;;6.18;;
14688;SDS011;7432;48.728;9.154;2022-07-06T07:37:36;6.65;;;6.10;;
14688;SDS011;7432;48.728;9.154;2022-07-06T07:40:03;7.00;;;6.15;;
14688;SDS011;7432;48.728;9.154;2022-07-06T07:42:31;6.78;;;6.10;;
14688;SDS011;7432;48.728;9.154;2022-07-06T07:44:58;6.95;;;6.30;;
14688;SDS011;7432;48.728;9.154;2022-07-06T07:47:24;6.65;;;6.15;;
14688;SDS011;7432;48.728;9.154;2022-07-06T07:49:50;7.13;;;6.63;;
14688;SDS011;7432;48.728;9.154;2022-07-06T07:52:18;6.40;;;5.78;;
14688;SDS011;7432;48.728;9.154;2022-07-06T07:54:45;6.95;;;6.00;;
14688;SDS011;7432;48.728;9.154;2022-07-06T07:57:11;7.00;;;6.40;;
14688;SDS011;7432;48.728;9.154;2022-07-06T07:59:37;6.60;;;6.10;;
14688;SDS011;7432;48.728;9.154;2022-07-06T08:02:04;7.75;;;6.22;;
14688;SDS011;7432;48.728;9.154;2022-07-06T08:04:30;6.78;;;6.28;;
14688;SDS011;7432;48.728;9.154;2022-07-06T08:06:57;6.75;;;6.22;;
14688;SDS011;7432;48.728;9.154;2022-07-06T08:09:25;6.50;;;6.10;;
14688;SDS011;7432;48.728;9.154;2022-07-06T08:11:51;6.60;;;6.07;;
14688;SDS011;7432;48.728;9.154;2022-07-06T08:14:18;6.45;;;6.05;;
14688;SDS011;7432;48.728;9.154;2022-07-06T08:16:44;6.55;;;5.95;;
14688;SDS011;7432;48.728;9.154;2022-07-06T08:19:10;7.15;;;6.75;;
14688;SDS011;7432;48.728;9.154;2022-07-06T08:21:40;6.80;;;6.40;;
14688;SDS011;7432;48.728;9.154;2022-07-06T08:24:06;7.68;;;6.90;;
14688;SDS011;7432;48.728;9.154;2022-07-06T08:26:35;6.50;;;6.10;;
14688;SDS011;7432;48.728;9.154;2022-07-06T08:29:02;7.22;;;6.63;;
14688;SDS011;7432;48.728;9.154;2022-07-06T08:31:29;6.60;;;6.20;;
14688;SDS011;7432;48.728;9.154;2022-07-06T08:33:56;6.28;;;5.88;;
14688;SDS011;7432;48.728;9.154;2022-07-06T08:36:23;6.57;;;6.07;;
14688;SDS011;7432;48.728;9.154;2022-07-06T08:38:50;6.60;;;6.10;;
14688;SDS011;7432;48.728;9.154;2022-07-06T08:41:16;6.53;;;6.13;;
14688;SDS011;7432;48.728;9.154;2022-07-06T08:43:48;6.65;;;6.15;;
14688;SDS011;7432;48.728;9.154;2022-07-06T08:46:16;7.05;;;6.35;;
14688;SDS011;7432;48.728;9.154;2022-07-06T08:48:42;6.63;;;6.13;;
14688;SDS011;7432;48.728;9.154;2022-07-06T08:51:09;5.78;;;5.32;;
14688;SDS011;7432;48.728;9.154;2022-07-06T08:53:38;5.95;;;5.60;;
14688;SDS011;7432;48.728;9.154;2022-07-06T08:56:06;6.53;;;6.13;;
14688;SDS011;7432;48.728;9.154;2022-07-06T08:58:32;6.93;;;6.40;;
14688;SDS011;7432;48.728;9.154;2022-07-06T09:01:01;7.03;;;6.35;;
14688;SDS011;7432;48.728;9.154;2022-07-06T09:03:27;6.40;;;6.00;;
14688;SDS011;7432;48.728;9.154;2022-07-06T09:05:56;7.95;;;6.50;;
14688;SDS011;7432;48.728;9.154;2022-07-06T09:08:27;7.03;;;6.43;;
14688;SDS011;7432;48.728;9.154;2022-07-06T09:10:56;7.32;;;6.80;;
14688;SDS011;7432;48.728;9.154;2022-07-06T09:13:23;7.18;;;6.78;;
14688;SDS011;7432;48.728;9.154;2022-07-06T09:15:49;7.05;;;6.55;;
14688;SDS011;7432;48.728;9.154;2022-07-06T09:18:17;7.15;;;6.70;;
14688;SDS011;7432;48.728;9.154;2022-07-06T09:20:44;7.18;;;6.57;;
14688;SDS011;7432;48.728;9.154;2022-07-06T09:23:10;6.60;;;6.07;;
14688;SDS011;7432;48.728;9.154;2022-07-06T09:25:42;7.10;;;6.70;;
14688;SDS011;7432;48.728;9.154;2022-07-06T09:28:13;7.00;;;6.40;;
14688;SDS011;7432;48.728;9.154;2022-07-06T09:30:39;7.10;;;6.53;;
14688;SDS011;7432;48.728;9.154;2022-07-06T09:33:07;7.00;;;6.40;;
14688;SDS011;7432;48.728;9.154;2022-07-06T09:35:36;7.57;;;6.75;;
14688;SDS011;7432;48.728;9.154;2022-07-06T09:38:05;6.80;;;6.18;;
14688;SDS011;7432;48.728;9.154;2022-07-06T09:40:33;7.53;;;7.00;;
14688;SDS011;7432;48.728;9.154;2022-07-06T09:43:07;7.00;;;6.50;;
14688;SDS011;7432;48.728;9.154;2022-07-06T09:45:35;8.07;;;6.95;;
14688;SDS011;7432;48.728;9.154;2022-07-06T09:48:06;7.63;;;6.80;;
14688;SDS011;7432;48.728;9.154;2022-07-06T09:50:39;6.22;;;5.80;;
14688;SDS011;7432;48.728;9.154;2022-07-06T09:53:06;6.97;;;6.47;;
14688;SDS011;7432;48.728;9.154;2022-07-06T09:55:33;7.10;;;6.30;;
14688;SDS011;7432;48.728;9.154;2022-07-06T09:57:59;6.82;;;6.40;;
14688;SDS011;7432;48.728;9.154;2022-07-06T10:00:26;6.80;;;6.13;;
14688;SDS011;7432;48.728;9.154;2022-07-06T10:02:52;6.65;;;6.07;;
14688;SDS011;7432;48.728;9.154;2022-07-06T10:05:21;7.28;;;6.78;;
14688;SDS011;7432;48.728;9.154;2022-07-06T10:07:53;7.00;;;6.40;;
14688;SDS011;7432;48.728;9.154;2022-07-06T10:10:23;6.60;;;6.20;;
14688;SDS011;7432;48.728;9.154;2022-07-06T10:12:51;7.10;;;6.50;;
14688;SDS011;7432;48.728;9.154;2022-07-06T10:15:21;6.88;;;6.45;;
14688;SDS011;7432;48.728;9.154;2022-07-06T10:17:48;6.80;;;6.30;;
14688;SDS011;7432;48.728;9.154;2022-07-06T10:20:16;6.43;;;5.93;;
14688;SDS011;7432;48.728;9.154;2022-07-06T10:22:43;6.47;;;5.88;;
14688;SDS011;7432;48.728;9.154;2022-07-06T10:25:12;6.32;;;5.93;;
14688;SDS011;7432;48.728;9.154;2022-07-06T10:27:39;6.88;;;6.28;;
14688;SDS011;7432;48.728;9.154;2022-07-06T10:30:09;6.78;;;6.28;;
14688;SDS011;7432;48.728;9.154;2022-07-06T10:32:36;6.95;;;6.45;;
14688;SDS011;7432;48.728;9.154;2022-07-06T10:35:05;7.00;;;6.40;;
14688;SDS011;7432;48.728;9.154;2022-07-06T10:37:32;10.35;;;6.68;;
14688;SDS011;7432;48.728;9.154;2022-07-06T10:39:59;7.20;;;6.70;;
14688;SDS011;7432;48.728;9.154;2022-07-06T10:42:46;6.95;;;6.45;;
14688;SDS011;7432;48.728;9.154;2022-07-06T10:45:19;7.35;;;6.85;;
14688;SDS011;7432;48.728;9.154;2022-07-06T10:47:47;7.80;;;7.10;;
14688;SDS011;7432;48.728;9.154;2022-07-06T10:50:16;7.30;;;6.80;;
14688;SDS011;7432;48.728;9.154;2022-07-06T10:52:47;8.60;;;8.00;;
14688;SDS011;7432;48.728;9.154;2022-07-06T10:55:27;7.82;;;7.22;;
14688;SDS011;7432;48.728;9.154;2022-07-06T10:57:56;7.32;;;6.93;;
14688;SDS011;7432;48.728;9.154;2022-07-06T11:00:22;7.63;;;7.05;;
14688;SDS011;7432;48.728;9.154;2022-07-06T11:02:49;8.20;;;7.60;;
14688;SDS011;7432;48.728;9.154;2022-07-06T11:08:08;7.38;;;6.88;;
14688;SDS011;7432;48.728;9.154;2022-07-06T11:10:45;7.53;;;7.03;;
14688;SDS011;7432;48.728;9.154;2022-07-06T11:13:25;8.15;;;7.60;;
14688;SDS011;7432;48.728;9.154;2022-07-06T11:15:52;8.98;;;8.15;;
14688;SDS011;7432;48.728;9.154;2022-07-06T11:18:27;8.20;;;7.60;;
14688;SDS011;7432;48.728;9.154;2022-07-06T11:23:43;8.30;;;7.70;;
14688;SDS011;7432;48.728;9.154;2022-07-06T11:26:11;8.38;;;7.57;;
14688;SDS011;7432;48.728;9.154;2022-07-06T11:28:41;8.15;;;7.40;;
14688;SDS011;7432;48.728;9.154;2022-07-06T11:31:07;8.05;;;7.47;;
14688;SDS011;7432;48.728;9.154;2022-07-06T11:33:34;9.02;;;8.27;;
14688;SDS011;7432;48.728;9.154;2022-07-06T11:36:11;7.97;;;7.38;;
14688;SDS011;7432;48.728;9.154;2022-07-06T11:38:38;8.55;;;7.82;;
14688;SDS011;7432;48.728;9.154;2022-07-06T11:41:04;7.40;;;6.80;;
14688;SDS011;7432;48.728;9.154;2022-07-06T11:43:30;8.95;;;8.18;;
14688;SDS011;7432;48.728;9.154;2022-07-06T11:45:58;8.43;;;7.72;;
14688;SDS011;7432;48.728;9.154;2022-07-06T11:48:25;8.38;;;7.63;;
14688;SDS011;7432;48.728;9.154;2022-07-06T11:50:58;7.85;;;7.15;;
14688;SDS011;7432;48.728;9.154;2022-07-06T11:53:25;7.82;;;7.07;;
14688;SDS011;7432;48.728;9.154;2022-07-06T11:55:52;8.48;;;7.68;;
14688;SDS011;7432;48.728;9.154;2022-07-06T11:58:19;8.43;;;7.55;;
14688;SDS011;7432;48.728;9.154;2022-07-06T12:03:43;8.35;;;7.75;;
14688;SDS011;7432;48.728;9.154;2022-07-06T12:06:15;8.20;;;7.18;;
14688;SDS011;7432;48.728;9.154;2022-07-06T12:08:43;8.90;;;8.20;;
14688;SDS011;7432;48.728;9.154;2022-07-06T12:11:16;8.02;;;7.28;;
14688;SDS011;7432;48.728;9.154;2022-07-06T12:13:45;8.63;;;7.90;;
14688;SDS011;7432;48.728;9.154;2022-07-06T12:16:12;8.48;;;7.78;;
14688;SDS011;7432;48.728;9.154;2022-07-06T12:18:40;9.52;;;8.00;;
14688;SDS011;7432;48.728;9.154;2022-07-06T12:21:09;8.18;;;7.47;;
14688;SDS011;7432;48.728;9.154;2022-07-06T12:23:38;9.30;;;8.40;;
14688;SDS011;7432;48.728;9.154;2022-07-06T12:26:07;7.95;;;7.20;;
14688;SDS011;7432;48.728;9.154;2022-07-06T12:28:34;9.70;;;7.38;;
14688;SDS011;7432;48.728;9.154;2022-07-06T12:31:01;8.27;;;7.60;;
14688;SDS011;7432;48.728;9.154;2022-07-06T12:33:28;8.30;;;7.70;;
14688;SDS011;7432;48.728;9.154;2022-07-06T12:35:54;7.85;;;7.25;;
14688;SDS011;7432;48.728;9.154;2022-07-06T12:38:23;8.30;;;7.50;;
14688;SDS011;7432;48.728;9.154;2022-07-06T12:40:50;7.78;;;7.18;;
14688;SDS011;7432;48.728;9.154;2022-07-06T12:48:52;8.43;;;7.82;;
14688;SDS011;7432;48.728;9.154;2022-07-06T12:51:19;8.25;;;7.53;;
14688;SDS011;7432;48.728;9.154;2022-07-06T12:53:47;8.30;;;7.50;;
14688;SDS011;7432;48.728;9.154;2022-07-06T12:56:14;9.15;;;7.88;;
14688;SDS011;7432;48.728;9.154;2022-07-06T12:58:54;8.30;;;7.50;;
14688;SDS011;7432;48.728;9.154;2022-07-06T13:01:21;8.45;;;7.63;;
14688;SDS011;7432;48.728;9.154;2022-07-06T13:03:48;8.45;;;7.65;;
14688;SDS011;7432;48.728;9.154;2022-07-06T13:06:28;8.25;;;7.65;;
14688;SDS011;7432;48.728;9.154;2022-07-06T13:08:57;8.05;;;7.45;;
14688;SDS011;7432;48.728;9.154;2022-07-06T13:11:23;9.57;;;7.45;;
14688;SDS011;7432;48.728;9.154;2022-07-06T13:13:50;8.15;;;7.55;;
14688;SDS011;7432;48.728;9.154;2022-07-06T13:16:16;7.72;;;7.13;;
14688;SDS011;7432;48.728;9.154;2022-07-06T13:18:43;8.10;;;7.57;;
14688;SDS011;7432;48.728;9.154;2022-07-06T13:21:09;7.95;;;7.25;;
14688;SDS011;7432;48.728;9.154;2022-07-06T13:23:36;9.05;;;7.32;;
14688;SDS011;7432;48.728;9.154;2022-07-06T13:26:04;8.35;;;7.47;;
14688;SDS011;7432;48.728;9.154;2022-07-06T13:28:31;6.95;;;6.35;;
14688;SDS011;7432;48.728;9.154;2022-07-06T13:30:57;8.25;;;7.65;;
14688;SDS011;7432;48.728;9.154;2022-07-06T13:33:23;7.78;;;7.03;;
14688;SDS011;7432;48.728;9.154;2022-07-06T13:35:50;8.00;;;7.30;;
14688;SDS011;7432;48.728;9.154;2022-07-06T13:38:16;8.63;;;7.35;;
14688;SDS011;7432;48.728;9.154;2022-07-06T13:40:43;8.02;;;7.30;;
14688;SDS011;7432;48.728;9.154;2022-07-06T13:43:12;8.30;;;7.60;;
14688;SDS011;7432;48.728;9.154;2022-07-06T13:45:38;8.02;;;7.32;;
14688;SDS011;7432;48.728;9.154;2022-07-06T13:48:05;7.38;;;6.88;;
14688;SDS011;7432;48.728;9.154;2022-07-06T13:50:32;7.85;;;7.22;;
14688;SDS011;7432;48.728;9.154;2022-07-06T13:52:58;7.63;;;7.13;;
14688;SDS011;7432;48.728;9.154;2022-07-06T13:55:25;8.68;;;7.47;;
14688;SDS011;7432;48.728;9.154;2022-07-06T13:57:51;8.15;;;7.45;;
14688;SDS011;7432;48.728;9.154;2022-07-06T14:00:19;7.63;;;6.90;;
14688;SDS011;7432;48.728;9.154;2022-07-06T14:02:46;7.75;;;6.72;;
14688;SDS011;7432;48.728;9.154;2022-07-06T14:05:13;7.57;;;7.05;;
14688;SDS011;7432;48.728;9.154;2022-07-06T14:07:39;7.47;;;6.90;;
14688;SDS011;7432;48.728;9.154;2022-07-06T14:10:06;7.72;;;6.65;;
14688;SDS011;7432;48.728;9.154;2022-07-06T14:12:33;6.75;;;6.25;;
14688;SDS011;7432;48.728;9.154;2022-07-06T14:14:59;7.45;;;6.90;;
14688;SDS011;7432;48.728;9.154;2022-07-06T14:17:27;7.25;;;6.70;;
14688;SDS011;7432;48.728;9.154;2022-07-06T14:19:53;6.72;;;6.22;;
14688;SDS011;7432;48.728;9.154;2022-07-06T14:22:20;7.70;;;6.68;;
14688;SDS011;7432;48.728;9.154;2022-07-06T14:24:46;6.82;;;6.22;;
14688;SDS011;7432;48.728;9.154;2022-07-06T14:27:13;8.00;;;7.20;;
14688;SDS011;7432;48.728;9.154;2022-07-06T14:29:39;7.90;;;7.20;;
14688;SDS011;7432;48.728;9.154;2022-07-06T14:32:06;7.38;;;6.88;;
14688;SDS011;7432;48.728;9.154;2022-07-06T14:34:34;8.10;;;7.50;;
14688;SDS011;7432;48.728;9.154;2022-07-06T14:37:00;9.45;;;8.60;;
14688;SDS011;7432;48.728;9.154;2022-07-06T14:39:27;7.65;;;7.05;;
14688;SDS011;7432;48.728;9.154;2022-07-06T14:41:53;8.13;;;7.38;;
14688;SDS011;7432;48.728;9.154;2022-07-06T14:44:20;7.50;;;6.90;;
14688;SDS011;7432;48.728;9.154;2022-07-06T14:46:46;7.85;;;7.18;;
14688;SDS011;7432;48.728;9.154;2022-07-06T14:49:12;7.95;;;7.28;;
14688;SDS011;7432;48.728;9.154;2022-07-06T14:51:40;8.32;;;7.28;;
14688;SDS011;7432;48.728;9.154;2022-07-06T14:54:07;8.82;;;7.93;;
14688;SDS011;7432;48.728;9.154;2022-07-06T14:56:34;7.22;;;6.53;;
14688;SDS011;7432;48.728;9.154;2022-07-06T14:59:01;7.50;;;7.00;;
14688;SDS011;7432;48.728;9.154;2022-07-06T15:01:27;6.93;;;6.20;;
14688;SDS011;7432;48.728;9.154;2022-07-06T15:03:53;7.60;;;6.22;;
14688;SDS011;7432;48.728;9.154;2022-07-06T15:06:20;7.15;;;6.60;;
14688;SDS011;7432;48.728;9.154;2022-07-06T15:08:48;7.03;;;6.43;;
14688;SDS011;7432;48.728;9.154;2022-07-06T15:11:14;6.60;;;6.00;;
14688;SDS011;7432;48.728;9.154;2022-07-06T15:13:41;6.65;;;5.97;;
14688;SDS011;7432;48.728;9.154;2022-07-06T15:16:07;8.18;;;5.75;;